createdAt,value
2022-09-28T17:34:13.200Z,11.00
2022-09-28T17:35:24.106Z,8.20
2022-09-28T17:36:14.154Z,10.60
2022-09-28T17:37:14.140Z,10.00
2022-09-28T17:38:14.140Z,9.00
2022-09-28T17:39:14.144Z,9.90
2022-09-28T17:40:14.123Z,12.40
2022-09-28T17:41:19.433Z,13.50
2022-09-28T17:42:14.399Z,11.80
2022-09-28T17:43:14.082Z,12.00
2022-09-28T17:44:17.355Z,12.10
2022-09-28T17:45:14.080Z,9.10
2022-09-28T17:46:14.080Z,9.10
2022-09-28T17:47:14.042Z,8.80
2022-09-28T17:48:14.025Z,8.90
2022-09-28T17:49:14.057Z,8.80
2022-09-28T17:50:14.018Z,6.10
2022-09-28T17:51:14.015Z,8.20
2022-09-28T17:52:13.990Z,10.50
2022-09-28T17:53:14.000Z,10.00
2022-09-28T17:54:14.012Z,5.80
2022-09-28T17:55:13.968Z,6.10
2022-09-28T17:56:13.950Z,8.80
2022-09-28T17:57:17.485Z,7.50
2022-09-28T17:58:13.929Z,10.90
2022-09-28T17:59:13.965Z,9.10
2022-09-28T18:00:13.922Z,9.10
2022-09-28T18:01:14.010Z,10.50
2022-09-28T18:02:13.955Z,8.90
2022-09-28T18:03:13.962Z,11.60
2022-09-28T18:04:33.433Z,12.30
2022-09-28T18:05:13.872Z,14.70
2022-09-28T18:06:13.858Z,15.90
2022-09-28T18:07:13.848Z,16.60
2022-09-28T18:08:13.855Z,14.90
2022-09-28T18:09:13.848Z,14.90
2022-09-28T18:10:13.828Z,11.90
2022-09-28T18:11:13.803Z,8.40
2022-09-28T18:12:13.790Z,12.00
2022-09-28T18:13:13.824Z,11.40
2022-09-28T18:14:13.778Z,6.60
2022-09-28T18:15:13.763Z,10.60
2022-09-28T18:16:13.801Z,7.50
2022-09-28T18:17:13.764Z,7.90
2022-09-28T18:18:13.748Z,7.90
2022-09-28T18:19:13.729Z,8.20
2022-09-28T18:20:13.727Z,9.20
2022-09-28T18:21:13.709Z,6.40
2022-09-28T18:22:13.690Z,8.00
2022-09-28T18:23:13.720Z,9.00
2022-09-28T18:24:13.676Z,8.50
2022-09-28T18:25:13.679Z,10.00
2022-09-28T18:26:13.660Z,9.20
2022-09-28T18:27:13.656Z,10.90
2022-09-28T18:28:13.650Z,8.00
2022-09-28T18:29:13.628Z,9.10
2022-09-28T18:30:13.603Z,9.40
2022-09-28T18:31:13.654Z,8.40
2022-09-28T18:32:13.588Z,7.10
2022-09-28T18:33:13.612Z,9.00
2022-09-28T18:34:13.674Z,11.90
2022-09-28T18:35:13.572Z,8.20
2022-09-28T18:36:13.549Z,8.60
2022-09-28T18:37:13.556Z,7.60
2022-09-28T18:38:13.559Z,9.50
2022-09-28T18:39:13.539Z,7.90
2022-09-28T18:40:13.530Z,9.70
2022-09-28T18:41:13.517Z,8.40
2022-09-28T18:42:13.503Z,9.60
2022-09-28T18:43:13.521Z,9.80
2022-09-28T18:44:13.467Z,8.50
2022-09-28T18:45:13.464Z,10.60
2022-09-28T18:46:13.477Z,9.00
2022-09-28T18:47:13.451Z,12.00
2022-09-28T18:48:13.424Z,13.70
2022-09-28T18:49:13.460Z,11.10
2022-09-28T18:50:13.426Z,12.40
2022-09-28T18:51:13.408Z,8.80
2022-09-28T18:52:13.388Z,15.10
2022-09-28T18:53:13.425Z,10.90
2022-09-28T18:54:13.407Z,9.40
2022-09-28T18:55:13.376Z,10.80
2022-09-28T18:56:13.346Z,9.10
2022-09-28T18:57:13.342Z,7.00
2022-09-28T18:58:13.323Z,10.20
2022-09-28T18:59:13.431Z,8.10
2022-09-28T19:00:13.319Z,8.90
2022-09-28T19:01:29.377Z,9.50
2022-09-28T19:02:13.455Z,6.90
2022-09-28T19:03:13.432Z,8.00
2022-09-28T19:04:13.306Z,6.70
2022-09-28T19:05:13.272Z,9.80
2022-09-28T19:06:13.274Z,9.30
2022-09-28T19:07:13.245Z,10.00
2022-09-28T19:08:13.236Z,9.30
2022-09-28T19:09:13.448Z,10.30
2022-09-28T19:10:13.215Z,10.30
2022-09-28T19:11:13.202Z,7.30
2022-09-28T19:12:13.205Z,11.00
2022-09-28T19:13:13.207Z,9.70
2022-09-28T19:14:13.203Z,10.00
2022-09-28T19:15:13.355Z,7.80
2022-09-28T19:16:13.219Z,9.10
2022-09-28T19:17:13.139Z,6.70
2022-09-28T19:18:13.133Z,8.70
2022-09-28T19:19:13.156Z,7.40
2022-09-28T19:20:13.121Z,9.60
2022-09-28T19:21:13.103Z,9.20
2022-09-28T19:22:13.103Z,8.10
2022-09-28T19:23:13.080Z,8.80
2022-09-28T19:24:13.088Z,8.30
2022-09-28T19:25:13.082Z,10.50
2022-09-28T19:26:13.054Z,14.10
2022-09-28T19:27:13.041Z,10.90
2022-09-28T19:28:13.042Z,11.40
2022-09-28T19:29:13.051Z,12.70
2022-09-28T19:30:13.026Z,12.40
2022-09-28T19:31:13.012Z,10.90
2022-09-28T19:32:12.996Z,14.80
2022-09-28T19:33:12.978Z,11.40
2022-09-28T19:34:14.229Z,13.80
2022-09-28T19:35:12.976Z,11.90
2022-09-28T19:36:13.019Z,10.70
2022-09-28T19:37:14.479Z,13.10
2022-09-28T19:38:13.972Z,11.40
2022-09-28T19:39:13.794Z,14.10
2022-09-28T19:40:12.934Z,15.20
2022-09-28T19:41:12.960Z,13.90
2022-09-28T19:42:13.204Z,14.70
2022-09-28T19:43:12.896Z,13.70
2022-09-28T19:44:12.901Z,11.90
2022-09-28T19:45:12.876Z,9.40
2022-09-28T19:46:12.901Z,12.40
2022-09-28T19:47:12.842Z,13.30
2022-09-28T19:48:12.826Z,16.00
2022-09-28T19:49:12.850Z,16.80
2022-09-28T19:50:12.805Z,14.80
2022-09-28T19:51:12.797Z,16.50
2022-09-28T19:52:14.583Z,15.40
2022-09-28T19:53:12.777Z,17.30
2022-09-28T19:54:12.786Z,15.00
2022-09-28T19:55:12.777Z,14.80
2022-09-28T19:56:12.744Z,13.00
2022-09-28T19:57:12.752Z,14.80
2022-09-28T19:58:12.727Z,15.90
2022-09-28T19:59:12.739Z,13.60
2022-09-28T20:00:12.723Z,14.80
2022-09-28T20:01:12.764Z,16.30
2022-09-28T20:02:12.718Z,18.10
2022-09-28T20:03:12.679Z,13.40
2022-09-28T20:04:12.697Z,13.40
2022-09-28T20:05:12.676Z,16.20
2022-09-28T20:06:16.507Z,14.70
2022-09-28T20:07:12.650Z,16.40
2022-09-28T20:08:12.636Z,14.70
2022-09-28T20:09:12.759Z,14.70
2022-09-28T20:10:12.603Z,14.90
2022-09-28T20:11:12.608Z,12.60
2022-09-28T20:12:12.600Z,13.30
2022-09-28T20:13:12.596Z,17.00
2022-09-28T20:14:12.564Z,12.80
2022-09-28T20:15:12.569Z,13.80
2022-09-28T20:16:12.619Z,13.50
2022-09-28T20:17:12.556Z,15.40
